sensor_id;sensor_type;location;lat;lon;timestamp;P1;durP1;ratioP1;P2;durP2;ratioP2
72924;SDS011;61070;50.794;7.054;2022-08-06T00:02:29;4.35;;;1.40;;
72924;SDS011;61070;50.794;7.054;2022-08-06T00:04:56;10.77;;;1.83;;
72924;SDS011;61070;50.794;7.054;2022-08-06T00:07:22;8.02;;;1.73;;
72924;SDS011;61070;50.794;7.054;2022-08-06T00:09:48;4.18;;;0.90;;
72924;SDS011;61070;50.794;7.054;2022-08-06T00:12:13;6.40;;;1.45;;
72924;SDS011;61070;50.794;7.054;2022-08-06T00:14:39;4.97;;;1.30;;
72924;SDS011;61070;50.794;7.054;2022-08-06T00:17:05;3.55;;;1.27;;
72924;SDS011;61070;50.794;7.054;2022-08-06T00:19:30;4.40;;;1.35;;
72924;SDS011;61070;50.794;7.054;2022-08-06T00:21:56;8.45;;;1.55;;
72924;SDS011;61070;50.794;7.054;2022-08-06T00:24:21;2.45;;;1.10;;
72924;SDS011;61070;50.794;7.054;2022-08-06T00:26:47;4.38;;;1.30;;
72924;SDS011;61070;50.794;7.054;2022-08-06T00:29:13;6.85;;;1.67;;
72924;SDS011;61070;50.794;7.054;2022-08-06T00:31:38;3.20;;;1.30;;
72924;SDS011;61070;50.794;7.054;2022-08-06T00:34:04;4.95;;;1.08;;
72924;SDS011;61070;50.794;7.054;2022-08-06T00:36:30;5.93;;;1.33;;
72924;SDS011;61070;50.794;7.054;2022-08-06T00:38:57;9.00;;;1.30;;
72924;SDS011;61070;50.794;7.054;2022-08-06T00:41:23;5.75;;;1.42;;
72924;SDS011;61070;50.794;7.054;2022-08-06T00:43:49;11.13;;;1.40;;
72924;SDS011;61070;50.794;7.054;2022-08-06T00:46:14;3.78;;;2.33;;
72924;SDS011;61070;50.794;7.054;2022-08-06T00:48:39;3.67;;;1.40;;
72924;SDS011;61070;50.794;7.054;2022-08-06T00:51:04;3.22;;;0.90;;
72924;SDS011;61070;50.794;7.054;2022-08-06T00:53:30;4.53;;;1.10;;
72924;SDS011;61070;50.794;7.054;2022-08-06T00:55:56;4.25;;;1.40;;
72924;SDS011;61070;50.794;7.054;2022-08-06T00:58:21;3.35;;;1.38;;
72924;SDS011;61070;50.794;7.054;2022-08-06T01:00:46;4.53;;;1.33;;
72924;SDS011;61070;50.794;7.054;2022-08-06T01:03:12;5.18;;;1.08;;
72924;SDS011;61070;50.794;7.054;2022-08-06T01:05:41;2.45;;;1.30;;
72924;SDS011;61070;50.794;7.054;2022-08-06T01:08:07;6.43;;;1.30;;
72924;SDS011;61070;50.794;7.054;2022-08-06T01:10:32;3.00;;;1.08;;
72924;SDS011;61070;50.794;7.054;2022-08-06T01:12:57;4.47;;;1.50;;
72924;SDS011;61070;50.794;7.054;2022-08-06T01:15:23;5.47;;;1.23;;
72924;SDS011;61070;50.794;7.054;2022-08-06T01:20:56;8.45;;;1.30;;
72924;SDS011;61070;50.794;7.054;2022-08-06T01:29:33;3.42;;;1.42;;
72924;SDS011;61070;50.794;7.054;2022-08-06T01:34:48;7.25;;;2.08;;
72924;SDS011;61070;50.794;7.054;2022-08-06T01:37:59;8.33;;;2.13;;
72924;SDS011;61070;50.794;7.054;2022-08-06T01:40:14;6.18;;;1.92;;
72924;SDS011;61070;50.794;7.054;2022-08-06T01:42:44;4.03;;;1.27;;
72924;SDS011;61070;50.794;7.054;2022-08-06T01:45:11;6.15;;;1.42;;
72924;SDS011;61070;50.794;7.054;2022-08-06T01:47:41;10.50;;;1.52;;
72924;SDS011;61070;50.794;7.054;2022-08-06T01:50:10;8.25;;;1.30;;
72924;SDS011;61070;50.794;7.054;2022-08-06T01:52:38;3.03;;;1.13;;
72924;SDS011;61070;50.794;7.054;2022-08-06T01:55:08;6.57;;;1.40;;
72924;SDS011;61070;50.794;7.054;2022-08-06T01:57:37;4.40;;;1.58;;
72924;SDS011;61070;50.794;7.054;2022-08-06T02:00:05;4.43;;;2.30;;
72924;SDS011;61070;50.794;7.054;2022-08-06T02:02:31;4.93;;;1.40;;
72924;SDS011;61070;50.794;7.054;2022-08-06T02:05:02;5.38;;;1.67;;
72924;SDS011;61070;50.794;7.054;2022-08-06T02:07:30;3.95;;;1.30;;
72924;SDS011;61070;50.794;7.054;2022-08-06T02:10:00;3.30;;;1.38;;
72924;SDS011;61070;50.794;7.054;2022-08-06T02:12:29;5.03;;;1.50;;
72924;SDS011;61070;50.794;7.054;2022-08-06T02:14:59;12.02;;;1.60;;
72924;SDS011;61070;50.794;7.054;2022-08-06T02:17:32;3.50;;;1.10;;
72924;SDS011;61070;50.794;7.054;2022-08-06T02:20:03;5.93;;;1.65;;
72924;SDS011;61070;50.794;7.054;2022-08-06T02:22:31;16.08;;;2.42;;
72924;SDS011;61070;50.794;7.054;2022-08-06T02:25:02;5.85;;;1.25;;
72924;SDS011;61070;50.794;7.054;2022-08-06T02:27:32;5.50;;;1.52;;
72924;SDS011;61070;50.794;7.054;2022-08-06T02:29:59;2.60;;;1.45;;
72924;SDS011;61070;50.794;7.054;2022-08-06T02:32:26;9.23;;;1.85;;
72924;SDS011;61070;50.794;7.054;2022-08-06T02:34:52;3.20;;;1.80;;
72924;SDS011;61070;50.794;7.054;2022-08-06T02:37:20;7.50;;;1.80;;
72924;SDS011;61070;50.794;7.054;2022-08-06T02:39:55;4.20;;;1.38;;
72924;SDS011;61070;50.794;7.054;2022-08-06T02:42:31;3.53;;;1.33;;
72924;SDS011;61070;50.794;7.054;2022-08-06T02:45:01;9.50;;;1.88;;
72924;SDS011;61070;50.794;7.054;2022-08-06T02:50:13;7.18;;;1.92;;
72924;SDS011;61070;50.794;7.054;2022-08-06T02:52:41;10.90;;;1.70;;
72924;SDS011;61070;50.794;7.054;2022-08-06T02:55:17;4.93;;;1.85;;
72924;SDS011;61070;50.794;7.054;2022-08-06T02:57:48;8.60;;;1.98;;
72924;SDS011;61070;50.794;7.054;2022-08-06T03:00:16;9.23;;;2.25;;
72924;SDS011;61070;50.794;7.054;2022-08-06T03:02:43;6.47;;;1.88;;
72924;SDS011;61070;50.794;7.054;2022-08-06T03:05:11;12.38;;;2.42;;
72924;SDS011;61070;50.794;7.054;2022-08-06T03:07:39;7.55;;;1.80;;
72924;SDS011;61070;50.794;7.054;2022-08-06T03:10:05;7.55;;;2.13;;
72924;SDS011;61070;50.794;7.054;2022-08-06T03:12:32;6.53;;;2.10;;
72924;SDS011;61070;50.794;7.054;2022-08-06T03:15:00;7.25;;;2.10;;
72924;SDS011;61070;50.794;7.054;2022-08-06T03:17:27;8.52;;;1.80;;
72924;SDS011;61070;50.794;7.054;2022-08-06T03:19:54;9.18;;;2.60;;
72924;SDS011;61070;50.794;7.054;2022-08-06T03:22:21;9.70;;;2.10;;
72924;SDS011;61070;50.794;7.054;2022-08-06T03:24:49;8.82;;;2.30;;
72924;SDS011;61070;50.794;7.054;2022-08-06T03:27:16;8.63;;;1.95;;
72924;SDS011;61070;50.794;7.054;2022-08-06T03:29:44;9.32;;;2.78;;
72924;SDS011;61070;50.794;7.054;2022-08-06T03:32:10;12.52;;;1.80;;
72924;SDS011;61070;50.794;7.054;2022-08-06T03:34:37;15.98;;;2.60;;
72924;SDS011;61070;50.794;7.054;2022-08-06T03:37:04;5.28;;;2.47;;
72924;SDS011;61070;50.794;7.054;2022-08-06T03:39:31;12.30;;;2.60;;
72924;SDS011;61070;50.794;7.054;2022-08-06T03:41:57;10.02;;;2.42;;
72924;SDS011;61070;50.794;7.054;2022-08-06T03:44:23;11.05;;;3.20;;
72924;SDS011;61070;50.794;7.054;2022-08-06T03:49:38;7.30;;;2.10;;
72924;SDS011;61070;50.794;7.054;2022-08-06T03:52:08;17.98;;;4.00;;
72924;SDS011;61070;50.794;7.054;2022-08-06T03:54:38;8.02;;;2.10;;
72924;SDS011;61070;50.794;7.054;2022-08-06T03:57:10;11.25;;;2.50;;
72924;SDS011;61070;50.794;7.054;2022-08-06T03:59:43;6.63;;;2.22;;
72924;SDS011;61070;50.794;7.054;2022-08-06T04:02:10;12.50;;;2.28;;
72924;SDS011;61070;50.794;7.054;2022-08-06T04:04:37;4.93;;;2.13;;
72924;SDS011;61070;50.794;7.054;2022-08-06T04:07:04;9.73;;;2.20;;
72924;SDS011;61070;50.794;7.054;2022-08-06T04:09:31;8.07;;;1.80;;
72924;SDS011;61070;50.794;7.054;2022-08-06T04:11:57;13.27;;;2.10;;
72924;SDS011;61070;50.794;7.054;2022-08-06T04:14:24;8.52;;;2.03;;
72924;SDS011;61070;50.794;7.054;2022-08-06T04:16:49;9.88;;;2.65;;
72924;SDS011;61070;50.794;7.054;2022-08-06T04:19:16;11.85;;;2.47;;
72924;SDS011;61070;50.794;7.054;2022-08-06T04:21:44;9.65;;;2.30;;
72924;SDS011;61070;50.794;7.054;2022-08-06T04:24:10;7.93;;;1.83;;
72924;SDS011;61070;50.794;7.054;2022-08-06T04:26:37;9.00;;;2.20;;
72924;SDS011;61070;50.794;7.054;2022-08-06T04:29:03;8.18;;;2.25;;
72924;SDS011;61070;50.794;7.054;2022-08-06T04:31:31;6.00;;;2.30;;
72924;SDS011;61070;50.794;7.054;2022-08-06T04:33:58;16.13;;;2.67;;
72924;SDS011;61070;50.794;7.054;2022-08-06T04:36:26;8.90;;;2.75;;
72924;SDS011;61070;50.794;7.054;2022-08-06T04:38:52;14.38;;;2.28;;
72924;SDS011;61070;50.794;7.054;2022-08-06T04:41:17;14.10;;;2.58;;
72924;SDS011;61070;50.794;7.054;2022-08-06T04:43:43;7.32;;;2.50;;
72924;SDS011;61070;50.794;7.054;2022-08-06T04:46:10;13.60;;;3.65;;
72924;SDS011;61070;50.794;7.054;2022-08-06T04:48:37;8.75;;;2.55;;
72924;SDS011;61070;50.794;7.054;2022-08-06T04:51:03;11.52;;;2.72;;
72924;SDS011;61070;50.794;7.054;2022-08-06T04:53:34;12.18;;;2.58;;
72924;SDS011;61070;50.794;7.054;2022-08-06T04:56:01;10.30;;;2.25;;
72924;SDS011;61070;50.794;7.054;2022-08-06T04:58:27;7.10;;;2.55;;
72924;SDS011;61070;50.794;7.054;2022-08-06T05:00:52;15.75;;;2.67;;
72924;SDS011;61070;50.794;7.054;2022-08-06T05:03:17;11.65;;;2.38;;
72924;SDS011;61070;50.794;7.054;2022-08-06T05:05:46;9.68;;;2.53;;
72924;SDS011;61070;50.794;7.054;2022-08-06T05:08:17;10.70;;;2.35;;
72924;SDS011;61070;50.794;7.054;2022-08-06T05:11:02;12.95;;;2.53;;
72924;SDS011;61070;50.794;7.054;2022-08-06T05:13:33;13.32;;;2.63;;
72924;SDS011;61070;50.794;7.054;2022-08-06T05:16:03;6.30;;;3.15;;
72924;SDS011;61070;50.794;7.054;2022-08-06T05:18:36;13.68;;;3.08;;
72924;SDS011;61070;50.794;7.054;2022-08-06T05:21:03;8.45;;;2.80;;
72924;SDS011;61070;50.794;7.054;2022-08-06T05:23:40;9.75;;;2.90;;
72924;SDS011;61070;50.794;7.054;2022-08-06T05:26:11;7.72;;;2.75;;
72924;SDS011;61070;50.794;7.054;2022-08-06T05:28:41;7.63;;;2.20;;
72924;SDS011;61070;50.794;7.054;2022-08-06T05:31:07;11.82;;;2.90;;
72924;SDS011;61070;50.794;7.054;2022-08-06T05:33:34;8.93;;;2.72;;
72924;SDS011;61070;50.794;7.054;2022-08-06T05:36:01;12.48;;;2.88;;
72924;SDS011;61070;50.794;7.054;2022-08-06T05:38:28;11.48;;;2.45;;
72924;SDS011;61070;50.794;7.054;2022-08-06T05:40:54;6.97;;;2.58;;
72924;SDS011;61070;50.794;7.054;2022-08-06T05:43:24;9.45;;;2.55;;
72924;SDS011;61070;50.794;7.054;2022-08-06T05:45:51;14.43;;;3.08;;
72924;SDS011;61070;50.794;7.054;2022-08-06T05:48:20;8.13;;;2.72;;
72924;SDS011;61070;50.794;7.054;2022-08-06T05:50:48;8.40;;;2.75;;
72924;SDS011;61070;50.794;7.054;2022-08-06T05:53:24;14.43;;;3.53;;
72924;SDS011;61070;50.794;7.054;2022-08-06T05:55:58;12.63;;;3.35;;
72924;SDS011;61070;50.794;7.054;2022-08-06T05:58:51;10.57;;;3.65;;
72924;SDS011;61070;50.794;7.054;2022-08-06T06:01:18;15.27;;;4.03;;
72924;SDS011;61070;50.794;7.054;2022-08-06T06:03:44;10.68;;;3.60;;
72924;SDS011;61070;50.794;7.054;2022-08-06T06:06:10;16.35;;;3.95;;
72924;SDS011;61070;50.794;7.054;2022-08-06T06:08:36;10.32;;;4.10;;
72924;SDS011;61070;50.794;7.054;2022-08-06T06:11:02;9.88;;;3.70;;
72924;SDS011;61070;50.794;7.054;2022-08-06T06:13:29;13.07;;;4.07;;
72924;SDS011;61070;50.794;7.054;2022-08-06T06:16:01;14.38;;;3.90;;
72924;SDS011;61070;50.794;7.054;2022-08-06T06:18:37;11.55;;;3.58;;
72924;SDS011;61070;50.794;7.054;2022-08-06T06:21:19;9.23;;;3.70;;
72924;SDS011;61070;50.794;7.054;2022-08-06T06:23:54;8.25;;;4.15;;
72924;SDS011;61070;50.794;7.054;2022-08-06T06:41:08;10.88;;;4.45;;
72924;SDS011;61070;50.794;7.054;2022-08-06T06:46:39;12.23;;;3.90;;
72924;SDS011;61070;50.794;7.054;2022-08-06T06:49:22;9.00;;;3.80;;
72924;SDS011;61070;50.794;7.054;2022-08-06T06:52:00;14.55;;;3.90;;
72924;SDS011;61070;50.794;7.054;2022-08-06T06:54:35;12.57;;;4.53;;
72924;SDS011;61070;50.794;7.054;2022-08-06T06:57:07;11.02;;;4.18;;
72924;SDS011;61070;50.794;7.054;2022-08-06T06:59:37;13.75;;;3.92;;
72924;SDS011;61070;50.794;7.054;2022-08-06T07:02:12;8.77;;;3.22;;
72924;SDS011;61070;50.794;7.054;2022-08-06T07:04:43;10.23;;;4.18;;
72924;SDS011;61070;50.794;7.054;2022-08-06T07:07:10;7.68;;;3.80;;
72924;SDS011;61070;50.794;7.054;2022-08-06T07:09:37;12.20;;;4.18;;
72924;SDS011;61070;50.794;7.054;2022-08-06T07:12:04;10.13;;;3.72;;
72924;SDS011;61070;50.794;7.054;2022-08-06T07:14:31;8.95;;;3.17;;
72924;SDS011;61070;50.794;7.054;2022-08-06T07:16:59;13.73;;;2.47;;
72924;SDS011;61070;50.794;7.054;2022-08-06T07:19:26;9.02;;;2.85;;
72924;SDS011;61070;50.794;7.054;2022-08-06T07:21:53;8.73;;;3.63;;
72924;SDS011;61070;50.794;7.054;2022-08-06T07:24:20;11.38;;;3.38;;
72924;SDS011;61070;50.794;7.054;2022-08-06T07:26:48;9.93;;;3.47;;
72924;SDS011;61070;50.794;7.054;2022-08-06T07:29:17;6.78;;;3.03;;
72924;SDS011;61070;50.794;7.054;2022-08-06T07:31:43;9.20;;;3.38;;
72924;SDS011;61070;50.794;7.054;2022-08-06T07:34:12;8.13;;;3.00;;
72924;SDS011;61070;50.794;7.054;2022-08-06T07:36:42;9.65;;;3.33;;
72924;SDS011;61070;50.794;7.054;2022-08-06T07:39:13;6.65;;;2.45;;
72924;SDS011;61070;50.794;7.054;2022-08-06T07:41:43;4.72;;;2.47;;
72924;SDS011;61070;50.794;7.054;2022-08-06T07:44:11;7.75;;;2.45;;
72924;SDS011;61070;50.794;7.054;2022-08-06T07:46:38;4.85;;;2.60;;
72924;SDS011;61070;50.794;7.054;2022-08-06T07:49:06;6.22;;;1.98;;
72924;SDS011;61070;50.794;7.054;2022-08-06T07:51:38;6.78;;;2.33;;
72924;SDS011;61070;50.794;7.054;2022-08-06T07:54:05;10.10;;;2.60;;
72924;SDS011;61070;50.794;7.054;2022-08-06T07:56:32;5.97;;;2.10;;
72924;SDS011;61070;50.794;7.054;2022-08-06T07:59:00;10.70;;;2.00;;
72924;SDS011;61070;50.794;7.054;2022-08-06T08:01:27;6.15;;;1.88;;
72924;SDS011;61070;50.794;7.054;2022-08-06T08:03:53;7.10;;;2.30;;
72924;SDS011;61070;50.794;7.054;2022-08-06T08:06:38;6.65;;;1.77;;
72924;SDS011;61070;50.794;7.054;2022-08-06T08:09:07;9.75;;;1.75;;
72924;SDS011;61070;50.794;7.054;2022-08-06T08:11:35;8.15;;;1.95;;
72924;SDS011;61070;50.794;7.054;2022-08-06T08:14:05;8.93;;;1.20;;
72924;SDS011;61070;50.794;7.054;2022-08-06T08:16:32;2.60;;;0.90;;
72924;SDS011;61070;50.794;7.054;2022-08-06T08:18:58;5.00;;;1.15;;
72924;SDS011;61070;50.794;7.054;2022-08-06T08:21:23;11.65;;;1.50;;
72924;SDS011;61070;50.794;7.054;2022-08-06T08:23:50;5.63;;;1.50;;
72924;SDS011;61070;50.794;7.054;2022-08-06T08:26:17;5.82;;;1.40;;
72924;SDS011;61070;50.794;7.054;2022-08-06T08:28:42;15.60;;;2.05;;
72924;SDS011;61070;50.794;7.054;2022-08-06T08:31:08;3.25;;;1.30;;
72924;SDS011;61070;50.794;7.054;2022-08-06T08:33:34;3.65;;;0.82;;
72924;SDS011;61070;50.794;7.054;2022-08-06T08:35:59;2.67;;;0.68;;
72924;SDS011;61070;50.794;7.054;2022-08-06T08:38:26;4.32;;;1.48;;
72924;SDS011;61070;50.794;7.054;2022-08-06T08:40:55;6.07;;;1.52;;
72924;SDS011;61070;50.794;7.054;2022-08-06T08:43:23;4.15;;;1.17;;
72924;SDS011;61070;50.794;7.054;2022-08-06T08:45:54;4.50;;;1.00;;
72924;SDS011;61070;50.794;7.054;2022-08-06T08:48:23;1.95;;;0.90;;
72924;SDS011;61070;50.794;7.054;2022-08-06T08:50:50;2.60;;;0.85;;
72924;SDS011;61070;50.794;7.054;2022-08-06T08:53:25;7.97;;;0.93;;
72924;SDS011;61070;50.794;7.054;2022-08-06T08:55:57;8.45;;;1.10;;
72924;SDS011;61070;50.794;7.054;2022-08-06T08:58:24;3.45;;;0.57;;
72924;SDS011;61070;50.794;7.054;2022-08-06T09:00:51;1.05;;;0.50;;
72924;SDS011;61070;50.794;7.054;2022-08-06T09:03:16;4.07;;;0.77;;
72924;SDS011;61070;50.794;7.054;2022-08-06T09:05:42;8.48;;;0.80;;
72924;SDS011;61070;50.794;7.054;2022-08-06T09:08:09;2.83;;;0.90;;
72924;SDS011;61070;50.794;7.054;2022-08-06T09:10:35;3.42;;;0.90;;
72924;SDS011;61070;50.794;7.054;2022-08-06T09:13:01;5.15;;;1.10;;
72924;SDS011;61070;50.794;7.054;2022-08-06T09:15:27;10.30;;;1.73;;
72924;SDS011;61070;50.794;7.054;2022-08-06T09:17:53;8.98;;;0.95;;
72924;SDS011;61070;50.794;7.054;2022-08-06T09:20:19;2.70;;;0.82;;
72924;SDS011;61070;50.794;7.054;2022-08-06T09:22:44;9.57;;;1.00;;
72924;SDS011;61070;50.794;7.054;2022-08-06T09:28:29;4.72;;;0.90;;
72924;SDS011;61070;50.794;7.054;2022-08-06T09:33:38;1.45;;;0.65;;
72924;SDS011;61070;50.794;7.054;2022-08-06T09:36:12;3.35;;;0.88;;
72924;SDS011;61070;50.794;7.054;2022-08-06T09:39:12;3.53;;;0.90;;
72924;SDS011;61070;50.794;7.054;2022-08-06T09:41:30;1.85;;;0.70;;
72924;SDS011;61070;50.794;7.054;2022-08-06T09:43:56;1.55;;;0.68;;
72924;SDS011;61070;50.794;7.054;2022-08-06T09:49:07;5.00;;;1.00;;
72924;SDS011;61070;50.794;7.054;2022-08-06T09:51:34;7.80;;;1.10;;
72924;SDS011;61070;50.794;7.054;2022-08-06T09:54:00;3.58;;;0.60;;
72924;SDS011;61070;50.794;7.054;2022-08-06T09:56:28;5.00;;;0.80;;
72924;SDS011;61070;50.794;7.054;2022-08-06T09:59:00;3.35;;;0.70;;
72924;SDS011;61070;50.794;7.054;2022-08-06T10:01:28;2.28;;;0.47;;
72924;SDS011;61070;50.794;7.054;2022-08-06T10:03:57;3.42;;;0.90;;
72924;SDS011;61070;50.794;7.054;2022-08-06T10:06:23;1.92;;;0.70;;
72924;SDS011;61070;50.794;7.054;2022-08-06T10:08:51;4.53;;;0.40;;
72924;SDS011;61070;50.794;7.054;2022-08-06T10:11:34;7.47;;;0.70;;
72924;SDS011;61070;50.794;7.054;2022-08-06T10:14:01;8.32;;;0.93;;
72924;SDS011;61070;50.794;7.054;2022-08-06T10:16:27;3.28;;;0.73;;
72924;SDS011;61070;50.794;7.054;2022-08-06T10:18:53;4.40;;;0.50;;
72924;SDS011;61070;50.794;7.054;2022-08-06T10:21:19;3.05;;;1.20;;
72924;SDS011;61070;50.794;7.054;2022-08-06T10:23:51;2.55;;;0.43;;
72924;SDS011;61070;50.794;7.054;2022-08-06T10:26:30;4.75;;;0.77;;
72924;SDS011;61070;50.794;7.054;2022-08-06T10:29:01;2.85;;;0.68;;
72924;SDS011;61070;50.794;7.054;2022-08-06T10:31:28;3.42;;;0.77;;
72924;SDS011;61070;50.794;7.054;2022-08-06T10:33:57;3.63;;;0.80;;
72924;SDS011;61070;50.794;7.054;2022-08-06T10:39:16;1.58;;;0.57;;
72924;SDS011;61070;50.794;7.054;2022-08-06T10:41:50;4.38;;;0.70;;
72924;SDS011;61070;50.794;7.054;2022-08-06T10:44:16;1.30;;;0.68;;
72924;SDS011;61070;50.794;7.054;2022-08-06T10:46:42;2.17;;;0.50;;
72924;SDS011;61070;50.794;7.054;2022-08-06T10:49:07;5.65;;;1.17;;
72924;SDS011;61070;50.794;7.054;2022-08-06T10:51:34;3.42;;;0.88;;
72924;SDS011;61070;50.794;7.054;2022-08-06T10:54:02;4.95;;;1.20;;
72924;SDS011;61070;50.794;7.054;2022-08-06T10:56:28;1.30;;;0.60;;
72924;SDS011;61070;50.794;7.054;2022-08-06T10:58:54;6.10;;;0.80;;
72924;SDS011;61070;50.794;7.054;2022-08-06T11:01:26;5.13;;;0.90;;
72924;SDS011;61070;50.794;7.054;2022-08-06T11:04:19;5.47;;;0.63;;
72924;SDS011;61070;50.794;7.054;2022-08-06T11:10:00;2.65;;;0.70;;
72924;SDS011;61070;50.794;7.054;2022-08-06T11:12:47;1.73;;;0.73;;
72924;SDS011;61070;50.794;7.054;2022-08-06T11:15:19;4.95;;;0.95;;
72924;SDS011;61070;50.794;7.054;2022-08-06T11:17:46;1.63;;;0.77;;
72924;SDS011;61070;50.794;7.054;2022-08-06T11:22:57;2.72;;;0.95;;
72924;SDS011;61070;50.794;7.054;2022-08-06T11:28:01;1.90;;;0.50;;
72924;SDS011;61070;50.794;7.054;2022-08-06T11:31:03;2.22;;;0.60;;
72924;SDS011;61070;50.794;7.054;2022-08-06T11:35:57;0.77;;;0.45;;
72924;SDS011;61070;50.794;7.054;2022-08-06T11:41:20;2.10;;;0.60;;
72924;SDS011;61070;50.794;7.054;2022-08-06T11:46:24;1.98;;;0.77;;
72924;SDS011;61070;50.794;7.054;2022-08-06T11:59:24;1.15;;;0.50;;
72924;SDS011;61070;50.794;7.054;2022-08-06T12:01:50;4.03;;;0.47;;
72924;SDS011;61070;50.794;7.054;2022-08-06T12:09:46;5.43;;;0.77;;
72924;SDS011;61070;50.794;7.054;2022-08-06T12:14:52;3.40;;;0.40;;
72924;SDS011;61070;50.794;7.054;2022-08-06T12:17:18;3.83;;;0.43;;
72924;SDS011;61070;50.794;7.054;2022-08-06T12:19:45;2.38;;;0.50;;
72924;SDS011;61070;50.794;7.054;2022-08-06T12:22:13;3.38;;;0.50;;
72924;SDS011;61070;50.794;7.054;2022-08-06T12:24:40;3.33;;;0.60;;
72924;SDS011;61070;50.794;7.054;2022-08-06T12:27:07;1.70;;;0.52;;
72924;SDS011;61070;50.794;7.054;2022-08-06T12:29:34;3.97;;;0.65;;
72924;SDS011;61070;50.794;7.054;2022-08-06T12:32:01;4.05;;;0.40;;
72924;SDS011;61070;50.794;7.054;2022-08-06T12:34:26;0.40;;;0.30;;
72924;SDS011;61070;50.794;7.054;2022-08-06T12:36:53;2.17;;;0.55;;
72924;SDS011;61070;50.794;7.054;2022-08-06T12:39:19;2.55;;;0.38;;
72924;SDS011;61070;50.794;7.054;2022-08-06T12:41:45;1.95;;;0.50;;
72924;SDS011;61070;50.794;7.054;2022-08-06T12:44:10;2.35;;;0.45;;
72924;SDS011;61070;50.794;7.054;2022-08-06T12:46:37;1.48;;;0.60;;
72924;SDS011;61070;50.794;7.054;2022-08-06T12:49:02;2.75;;;0.47;;
72924;SDS011;61070;50.794;7.054;2022-08-06T12:51:28;2.28;;;0.32;;
72924;SDS011;61070;50.794;7.054;2022-08-06T12:53:54;1.40;;;0.50;;
72924;SDS011;61070;50.794;7.054;2022-08-06T12:56:24;1.58;;;0.60;;
72924;SDS011;61070;50.794;7.054;2022-08-06T12:58:51;0.30;;;0.30;;
72924;SDS011;61070;50.794;7.054;2022-08-06T13:01:18;0.57;;;0.40;;
72924;SDS011;61070;50.794;7.054;2022-08-06T13:03:46;2.45;;;0.82;;
72924;SDS011;61070;50.794;7.054;2022-08-06T13:06:14;1.08;;;0.40;;
72924;SDS011;61070;50.794;7.054;2022-08-06T13:08:44;1.08;;;0.50;;
72924;SDS011;61070;50.794;7.054;2022-08-06T13:11:11;0.65;;;0.38;;
72924;SDS011;61070;50.794;7.054;2022-08-06T13:13:47;3.67;;;0.47;;
72924;SDS011;61070;50.794;7.054;2022-08-06T13:16:15;2.53;;;0.30;;
72924;SDS011;61070;50.794;7.054;2022-08-06T13:18:42;1.38;;;0.40;;
72924;SDS011;61070;50.794;7.054;2022-08-06T13:21:28;1.45;;;0.50;;
72924;SDS011;61070;50.794;7.054;2022-08-06T13:23:53;2.58;;;0.30;;
72924;SDS011;61070;50.794;7.054;2022-08-06T13:26:24;2.20;;;0.73;;
72924;SDS011;61070;50.794;7.054;2022-08-06T13:31:34;3.30;;;1.05;;
72924;SDS011;61070;50.794;7.054;2022-08-06T13:34:02;1.48;;;0.40;;
72924;SDS011;61070;50.794;7.054;2022-08-06T13:36:29;0.32;;;0.30;;
72924;SDS011;61070;50.794;7.054;2022-08-06T13:38:56;1.63;;;0.63;;
72924;SDS011;61070;50.794;7.054;2022-08-06T13:41:23;1.88;;;0.77;;
72924;SDS011;61070;50.794;7.054;2022-08-06T13:43:52;2.58;;;0.35;;
72924;SDS011;61070;50.794;7.054;2022-08-06T13:46:19;4.13;;;0.50;;
72924;SDS011;61070;50.794;7.054;2022-08-06T13:48:45;2.72;;;0.70;;
72924;SDS011;61070;50.794;7.054;2022-08-06T13:51:13;2.85;;;0.70;;
72924;SDS011;61070;50.794;7.054;2022-08-06T13:53:39;3.13;;;0.77;;
72924;SDS011;61070;50.794;7.054;2022-08-06T13:56:04;2.40;;;0.52;;
72924;SDS011;61070;50.794;7.054;2022-08-06T13:58:30;1.95;;;0.40;;
72924;SDS011;61070;50.794;7.054;2022-08-06T14:00:55;2.05;;;0.90;;
72924;SDS011;61070;50.794;7.054;2022-08-06T14:03:21;0.93;;;0.47;;
72924;SDS011;61070;50.794;7.054;2022-08-06T14:05:46;1.05;;;0.50;;
72924;SDS011;61070;50.794;7.054;2022-08-06T14:08:12;1.95;;;0.50;;
72924;SDS011;61070;50.794;7.054;2022-08-06T14:10:37;3.80;;;0.63;;
72924;SDS011;61070;50.794;7.054;2022-08-06T14:13:02;1.48;;;0.47;;
72924;SDS011;61070;50.794;7.054;2022-08-06T14:15:44;2.00;;;0.50;;
72924;SDS011;61070;50.794;7.054;2022-08-06T14:18:11;1.67;;;0.50;;
72924;SDS011;61070;50.794;7.054;2022-08-06T14:20:37;0.40;;;0.40;;
72924;SDS011;61070;50.794;7.054;2022-08-06T14:23:02;1.13;;;0.55;;
72924;SDS011;61070;50.794;7.054;2022-08-06T14:25:27;2.88;;;0.55;;
72924;SDS011;61070;50.794;7.054;2022-08-06T14:27:53;2.67;;;0.50;;
72924;SDS011;61070;50.794;7.054;2022-08-06T14:30:19;0.88;;;0.50;;
72924;SDS011;61070;50.794;7.054;2022-08-06T14:32:45;3.25;;;0.60;;
72924;SDS011;61070;50.794;7.054;2022-08-06T14:35:11;14.25;;;1.75;;
72924;SDS011;61070;50.794;7.054;2022-08-06T14:37:38;3.08;;;0.68;;
72924;SDS011;61070;50.794;7.054;2022-08-06T14:40:03;1.25;;;0.52;;
72924;SDS011;61070;50.794;7.054;2022-08-06T14:42:29;26.88;;;2.72;;
72924;SDS011;61070;50.794;7.054;2022-08-06T14:45:13;1.73;;;0.50;;
72924;SDS011;61070;50.794;7.054;2022-08-06T14:47:39;2.15;;;0.60;;
72924;SDS011;61070;50.794;7.054;2022-08-06T14:50:04;4.45;;;0.73;;
72924;SDS011;61070;50.794;7.054;2022-08-06T14:52:30;0.77;;;0.40;;
72924;SDS011;61070;50.794;7.054;2022-08-06T14:54:56;1.90;;;0.70;;
72924;SDS011;61070;50.794;7.054;2022-08-06T14:57:21;0.50;;;0.50;;
72924;SDS011;61070;50.794;7.054;2022-08-06T14:59:47;1.55;;;0.40;;
72924;SDS011;61070;50.794;7.054;2022-08-06T15:02:12;6.68;;;0.80;;
72924;SDS011;61070;50.794;7.054;2022-08-06T15:04:38;1.52;;;0.60;;
72924;SDS011;61070;50.794;7.054;2022-08-06T15:07:04;1.88;;;0.80;;
72924;SDS011;61070;50.794;7.054;2022-08-06T15:09:30;2.80;;;0.70;;
72924;SDS011;61070;50.794;7.054;2022-08-06T15:11:57;1.60;;;0.40;;
72924;SDS011;61070;50.794;7.054;2022-08-06T15:14:23;3.75;;;0.65;;
72924;SDS011;61070;50.794;7.054;2022-08-06T15:16:48;4.07;;;1.02;;
72924;SDS011;61070;50.794;7.054;2022-08-06T15:19:13;9.82;;;0.63;;
72924;SDS011;61070;50.794;7.054;2022-08-06T15:21:39;4.82;;;0.60;;
72924;SDS011;61070;50.794;7.054;2022-08-06T15:24:04;1.77;;;0.70;;
72924;SDS011;61070;50.794;7.054;2022-08-06T15:26:30;5.13;;;0.40;;
72924;SDS011;61070;50.794;7.054;2022-08-06T15:28:55;1.63;;;0.52;;
72924;SDS011;61070;50.794;7.054;2022-08-06T15:31:20;2.15;;;0.50;;
72924;SDS011;61070;50.794;7.054;2022-08-06T15:33:46;1.20;;;0.60;;
72924;SDS011;61070;50.794;7.054;2022-08-06T15:36:11;1.95;;;0.60;;
72924;SDS011;61070;50.794;7.054;2022-08-06T15:38:37;1.88;;;0.70;;
72924;SDS011;61070;50.794;7.054;2022-08-06T15:41:03;2.78;;;0.60;;
72924;SDS011;61070;50.794;7.054;2022-08-06T15:43:29;1.20;;;0.50;;
72924;SDS011;61070;50.794;7.054;2022-08-06T15:45:55;2.58;;;0.50;;
72924;SDS011;61070;50.794;7.054;2022-08-06T15:48:22;5.57;;;0.70;;
72924;SDS011;61070;50.794;7.054;2022-08-06T15:50:49;2.78;;;0.82;;
72924;SDS011;61070;50.794;7.054;2022-08-06T15:53:15;2.10;;;0.80;;
72924;SDS011;61070;50.794;7.054;2022-08-06T15:55:40;4.80;;;0.65;;
72924;SDS011;61070;50.794;7.054;2022-08-06T15:58:06;3.50;;;0.85;;
72924;SDS011;61070;50.794;7.054;2022-08-06T16:00:32;1.50;;;0.75;;
72924;SDS011;61070;50.794;7.054;2022-08-06T16:02:59;2.90;;;0.70;;
72924;SDS011;61070;50.794;7.054;2022-08-06T16:05:24;4.78;;;1.60;;
72924;SDS011;61070;50.794;7.054;2022-08-06T16:07:50;2.35;;;0.70;;
72924;SDS011;61070;50.794;7.054;2022-08-06T16:10:15;2.67;;;0.60;;
72924;SDS011;61070;50.794;7.054;2022-08-06T16:12:41;1.90;;;0.52;;
72924;SDS011;61070;50.794;7.054;2022-08-06T16:15:06;2.08;;;0.80;;
72924;SDS011;61070;50.794;7.054;2022-08-06T16:17:33;1.50;;;0.60;;